N745JS KCRQ-KSFO
Flight info
| Callsign | N745JS |
|---|---|
| Flight time | N/A |
| Altitude | 40000 |
| Route | PADRZ2 IKAYE RIZIN SPLNT STOKD SERFR SERFR4 |
| Aircraft | C525/L-SDFGRWY/SB1 |
Departure
| Time | N/A |
|---|---|
| Airport | McClellan-Palomar Airport (KCRQ) |
Arrival
| Time | 2026-04-30 18:30 |
|---|---|
| Airport | San Francisco International Airport (KSFO) |
| Time | Latitude | Longitude | Altitude | Speed | Heading |
|---|---|---|---|---|---|
| 2026-04-30 17:39 | 34.01778 | -118.85626 | 33979 ft | 316 kts | 320° |
| 2026-04-30 17:41 | 34.14588 | -119.01646 | 33987 ft | 347 kts | 311° |
| 2026-04-30 17:42 | 34.17236 | -119.06586 | 33991 ft | 353 kts | 307° |
| 2026-04-30 17:43 | 34.23812 | -119.19422 | 33992 ft | 362 kts | 306° |
| 2026-04-30 17:44 | 34.31834 | -119.35019 | 33997 ft | 366 kts | 306° |
| 2026-04-30 17:47 | 34.44569 | -119.58146 | 34004 ft | 363 kts | 317° |
| 2026-04-30 17:48 | 34.57179 | -119.73116 | 34016 ft | 363 kts | 317° |
| 2026-04-30 17:50 | 34.71394 | -119.90609 | 34016 ft | 363 kts | 317° |
| 2026-04-30 17:52 | 34.82005 | -120.03789 | 34036 ft | 363 kts | 316° |
| 2026-04-30 17:54 | 34.97865 | -120.23595 | 34008 ft | 363 kts | 316° |
| 2026-04-30 17:56 | 35.12114 | -120.41102 | 33996 ft | 362 kts | 319° |
| 2026-04-30 17:58 | 35.23296 | -120.53569 | 34004 ft | 362 kts | 319° |
| 2026-04-30 18:00 | 35.38153 | -120.70287 | 34013 ft | 362 kts | 318° |
| 2026-04-30 18:01 | 35.47460 | -120.80810 | 34020 ft | 362 kts | 318° |
| 2026-04-30 18:02 | 35.59423 | -120.92114 | 34012 ft | 362 kts | 323° |
| 2026-04-30 18:04 | 35.71479 | -121.03310 | 34032 ft | 361 kts | 322° |
| 2026-04-30 18:06 | 35.87515 | -121.18298 | 34044 ft | 360 kts | 322° |
| 2026-04-30 18:07 | 35.95546 | -121.25835 | 33719 ft | 368 kts | 322° |
| 2026-04-30 18:08 | 36.01871 | -121.31786 | 32521 ft | 389 kts | 322° |
| 2026-04-30 18:09 | 36.10859 | -121.39665 | 30786 ft | 397 kts | 328° |
| 2026-04-30 18:10 | 36.20163 | -121.46883 | 29014 ft | 390 kts | 328° |
| 2026-04-30 18:11 | 36.28988 | -121.53771 | 27363 ft | 366 kts | 328° |
| 2026-04-30 18:11 | 36.35583 | -121.58939 | 26175 ft | 383 kts | 328° |
| 2026-04-30 18:12 | 36.42277 | -121.64199 | 24958 ft | 366 kts | 329° |
| 2026-04-30 18:13 | 36.46446 | -121.67483 | 24151 ft | 351 kts | 328° |
| 2026-04-30 18:13 | 36.51893 | -121.71777 | 23101 ft | 346 kts | 329° |
| 2026-04-30 18:14 | 36.56627 | -121.75518 | 22178 ft | 345 kts | 329° |
| 2026-04-30 18:15 | 36.62694 | -121.80321 | 21047 ft | 342 kts | 329° |
| 2026-04-30 18:15 | 36.68677 | -121.85067 | 20021 ft | 339 kts | 329° |
| 2026-04-30 18:16 | 36.72639 | -121.88214 | 19321 ft | 338 kts | 329° |
| 2026-04-30 18:16 | 36.77042 | -121.90048 | 18474 ft | 337 kts | 348° |
| 2026-04-30 18:17 | 36.79332 | -121.90755 | 18058 ft | 335 kts | 347° |
| 2026-04-30 18:17 | 36.81592 | -121.91411 | 17642 ft | 334 kts | 347° |
| 2026-04-30 18:17 | 36.86105 | -121.92708 | 16798 ft | 330 kts | 347° |
| 2026-04-30 18:18 | 36.88340 | -121.93344 | 16380 ft | 329 kts | 347° |
| 2026-04-30 18:18 | 36.90541 | -121.93968 | 15953 ft | 328 kts | 347° |
| 2026-04-30 18:18 | 36.92784 | -121.94601 | 15507 ft | 326 kts | 347° |
| 2026-04-30 18:18 | 36.94984 | -121.95222 | 15049 ft | 325 kts | 348° |
| 2026-04-30 18:19 | 36.97149 | -121.95963 | 14597 ft | 324 kts | 343° |
| 2026-04-30 18:19 | 36.99304 | -121.96805 | 14148 ft | 323 kts | 343° |
| 2026-04-30 18:19 | 37.01431 | -121.97654 | 13713 ft | 322 kts | 343° |
| 2026-04-30 18:19 | 37.03584 | -121.98513 | 13281 ft | 320 kts | 343° |
| 2026-04-30 18:20 | 37.05664 | -121.99340 | 12860 ft | 315 kts | 343° |
| 2026-04-30 18:20 | 37.07738 | -122.00163 | 12439 ft | 312 kts | 343° |
| 2026-04-30 18:20 | 37.09815 | -122.00983 | 11994 ft | 310 kts | 343° |
| 2026-04-30 18:20 | 37.11882 | -122.01798 | 11575 ft | 310 kts | 343° |
| 2026-04-30 18:21 | 37.13938 | -122.02607 | 11137 ft | 309 kts | 344° |
| 2026-04-30 18:21 | 37.15992 | -122.03414 | 10696 ft | 309 kts | 344° |
| 2026-04-30 18:21 | 37.18019 | -122.04211 | 10272 ft | 303 kts | 344° |
| 2026-04-30 18:21 | 37.19975 | -122.04981 | 9824 ft | 285 kts | 344° |
| 2026-04-30 18:22 | 37.21844 | -122.05716 | 9372 ft | 273 kts | 344° |
| 2026-04-30 18:22 | 37.25400 | -122.07112 | 8490 ft | 266 kts | 344° |
| 2026-04-30 18:22 | 37.27152 | -122.07800 | 8048 ft | 264 kts | 344° |
| 2026-04-30 18:23 | 37.28910 | -122.08491 | 7601 ft | 263 kts | 344° |
| 2026-04-30 18:23 | 37.30642 | -122.09172 | 7159 ft | 262 kts | 344° |
| 2026-04-30 18:23 | 37.32386 | -122.09859 | 6712 ft | 261 kts | 343° |
| 2026-04-30 18:23 | 37.34111 | -122.10539 | 6266 ft | 260 kts | 343° |
| 2026-04-30 18:24 | 37.37549 | -122.11895 | 5372 ft | 257 kts | 343° |
| 2026-04-30 18:24 | 37.39259 | -122.12514 | 5019 ft | 251 kts | 346° |
| 2026-04-30 18:24 | 37.40914 | -122.13080 | 4815 ft | 242 kts | 346° |
| 2026-04-30 18:25 | 37.42533 | -122.13628 | 4608 ft | 237 kts | 346° |
| 2026-04-30 18:25 | 37.45654 | -122.14686 | 4204 ft | 231 kts | 346° |
| 2026-04-30 18:25 | 37.47214 | -122.15199 | 3982 ft | 231 kts | 346° |
| 2026-04-30 18:26 | 37.50340 | -122.16222 | 3583 ft | 230 kts | 346° |
| 2026-04-30 18:26 | 37.51868 | -122.16774 | 3410 ft | 229 kts | 344° |
| 2026-04-30 18:26 | 37.53397 | -122.17413 | 3222 ft | 229 kts | 335° |
| 2026-04-30 18:27 | 37.55213 | -122.20598 | 2974 ft | 224 kts | 299° |
| 2026-04-30 18:27 | 37.55915 | -122.22335 | 2810 ft | 220 kts | 297° |
| 2026-04-30 18:28 | 37.57171 | -122.25713 | 2389 ft | 212 kts | 295° |
| 2026-04-30 18:28 | 37.57798 | -122.27366 | 2103 ft | 205 kts | 300° |
| 2026-04-30 18:28 | 37.59199 | -122.30526 | 1088 ft | 205 kts | 299° |
| 2026-04-30 18:29 | 37.59835 | -122.32086 | 695 ft | 197 kts | 296° |
| 2026-04-30 18:29 | 37.61335 | -122.35650 | 106 ft | 113 kts | 296° |
| 2026-04-30 18:30 | 37.61928 | -122.37083 | 9 ft | 69 kts | 297° |
| 2026-04-30 18:30 | 37.62268 | -122.37895 | 23 ft | 40 kts | 297° |
| 2026-04-30 18:31 | 37.62388 | -122.38117 | 22 ft | 26 kts | 325° |
| 2026-04-30 18:31 | 37.62558 | -122.38218 | 19 ft | 12 kts | 307° |
| 2026-04-30 18:32 | 37.62634 | -122.38397 | 17 ft | 10 kts | 298° |
| 2026-04-30 18:32 | 37.62653 | -122.38444 | 17 ft | 0 kts | 299° |
| 2026-04-30 18:32 | 37.62726 | -122.38438 | 15 ft | 3 kts | 71° |
| 2026-04-30 18:33 | 37.62705 | -122.38409 | 16 ft | 5 kts | 147° |
| 2026-04-30 18:33 | 37.62678 | -122.38302 | 17 ft | 7 kts | 67° |
| 2026-04-30 18:33 | 37.62713 | -122.38251 | 16 ft | 8 kts | 26° |
| 2026-04-30 18:34 | 37.62748 | -122.38282 | 15 ft | 7 kts | 286° |
| 2026-04-30 18:34 | 37.62752 | -122.38291 | 15 ft | 0 kts | 300° |